Terminal Aerodrome Forecast
Issued by NWS Paducah, KY

Home | Current Version | Previous Version | Graphics & Text | Print | Product List | Glossary On
Versions: 1 2 3 4 5 6 7 8 9 10 11 12 13 14 15 16
000
FTUS43 KPAH 222300
TAFPAH
TAF
KPAH 222320Z 2300/2324 24003KT P6SM SKC
     FM231000 24002KT P6SM SCT150
     FM231400 24006KT P6SM SCT045 BKN150 PROB30 2314/2318 -SHRA
      BKN045
     FM231800 27007KT P6SM BKN040=

USA.gov is the U.S. government's official web portal to all federal, state and local government web resources and services.